createdAt,value
2018-12-06T00:02:00.573Z,6.78
2018-12-06T00:04:34.179Z,8.43
2018-12-06T00:07:08.757Z,7.00
2018-12-06T00:09:42.333Z,7.07
2018-12-06T00:12:15.855Z,7.25
2018-12-06T00:14:49.481Z,7.75
2018-12-06T00:17:23.043Z,7.35
2018-12-06T00:19:56.641Z,7.53
2018-12-06T00:22:30.304Z,7.10
2018-12-06T00:25:04.003Z,8.23
2018-12-06T00:27:38.321Z,7.32
2018-12-06T00:30:35.476Z,7.30
2018-12-06T00:33:10.197Z,7.03
2018-12-06T00:35:45.235Z,6.82
2018-12-06T00:38:18.954Z,7.03
2018-12-06T00:40:52.603Z,7.53
2018-12-06T00:43:26.218Z,7.70
2018-12-06T00:45:59.735Z,6.97
2018-12-06T00:48:34.136Z,6.82
2018-12-06T00:51:07.868Z,7.50
2018-12-06T00:53:42.229Z,8.35
2018-12-06T00:56:16.675Z,7.35
2018-12-06T00:58:50.201Z,6.97
2018-12-06T01:01:23.724Z,7.62
2018-12-06T01:03:57.219Z,7.87
2018-12-06T01:06:30.789Z,7.10
2018-12-06T01:09:04.402Z,6.97
2018-12-06T01:11:38.021Z,6.53
2018-12-06T01:14:11.708Z,7.62
2018-12-06T01:16:45.419Z,6.80
2018-12-06T01:19:19.824Z,8.82
2018-12-06T01:21:53.520Z,7.87
2018-12-06T01:24:27.094Z,7.70
2018-12-06T01:27:00.759Z,7.05
2018-12-06T01:29:34.289Z,5.35
2018-12-06T01:32:07.893Z,5.62
2018-12-06T01:34:41.409Z,4.43
2018-12-06T01:37:14.922Z,5.28
2018-12-06T01:39:48.678Z,3.05
2018-12-06T01:42:22.313Z,6.15
2018-12-06T01:44:55.919Z,5.70
2018-12-06T01:47:30.726Z,6.70
2018-12-06T01:50:05.173Z,7.37
2018-12-06T01:52:38.890Z,7.80
2018-12-06T01:55:13.297Z,6.30
2018-12-06T01:57:47.937Z,7.20
2018-12-06T02:00:21.447Z,6.60
2018-12-06T02:02:55.761Z,7.03
2018-12-06T02:05:29.347Z,6.95
2018-12-06T02:08:02.897Z,12.30
2018-12-06T02:10:36.641Z,5.30
2018-12-06T02:13:10.221Z,6.00
2018-12-06T02:15:43.860Z,5.00
2018-12-06T02:18:17.483Z,6.47
2018-12-06T02:20:51.775Z,5.05
2018-12-06T02:23:26.219Z,5.30
2018-12-06T02:25:59.784Z,5.93
2018-12-06T02:28:33.484Z,6.18
2018-12-06T02:31:07.002Z,6.47
2018-12-06T02:33:40.540Z,6.45
2018-12-06T02:36:15.031Z,5.70
2018-12-06T02:38:49.423Z,6.95
2018-12-06T02:41:23.051Z,6.00
2018-12-06T02:43:56.757Z,6.12
2018-12-06T02:46:30.393Z,6.00
2018-12-06T02:49:04.839Z,5.25
2018-12-06T02:51:38.376Z,6.50
2018-12-06T02:54:11.943Z,6.78
2018-12-06T02:56:45.504Z,6.80
2018-12-06T02:59:19.151Z,6.15
2018-12-06T03:01:53.468Z,6.90
2018-12-06T03:04:27.892Z,6.30
2018-12-06T03:07:01.523Z,7.18
2018-12-06T03:09:35.017Z,7.00
2018-12-06T03:12:09.428Z,7.05
2018-12-06T03:14:43.059Z,5.60
2018-12-06T03:17:16.773Z,7.12
2018-12-06T03:19:50.418Z,6.40
2018-12-06T03:22:24.041Z,6.20
2018-12-06T03:24:58.427Z,7.87
2018-12-06T03:27:31.955Z,7.25
2018-12-06T03:30:05.472Z,7.70
2018-12-06T03:32:38.975Z,6.97
2018-12-06T03:35:12.696Z,6.70
2018-12-06T03:37:47.112Z,7.70
2018-12-06T03:40:21.461Z,6.68
2018-12-06T03:42:55.908Z,7.25
2018-12-06T03:45:30.224Z,7.15
2018-12-06T03:48:03.932Z,6.70
2018-12-06T03:50:38.323Z,6.62
2018-12-06T03:53:12.109Z,6.03
2018-12-06T03:55:45.737Z,6.55
2018-12-06T03:58:19.449Z,7.03
2018-12-06T04:00:52.952Z,7.30
2018-12-06T04:03:26.476Z,9.52
2018-12-06T04:05:59.982Z,6.32
2018-12-06T04:08:33.523Z,7.00
2018-12-06T04:11:07.226Z,5.85
2018-12-06T04:13:40.872Z,6.28
2018-12-06T04:16:15.258Z,6.97
2018-12-06T04:18:48.795Z,5.93
2018-12-06T04:21:22.540Z,6.12
2018-12-06T04:23:56.078Z,6.15
2018-12-06T04:26:29.696Z,6.30
2018-12-06T04:29:04.060Z,6.12
2018-12-06T04:31:37.750Z,5.45
2018-12-06T04:34:12.045Z,6.97
2018-12-06T04:36:45.555Z,4.60
2018-12-06T04:39:19.181Z,6.30
2018-12-06T04:41:53.619Z,6.25
2018-12-06T04:44:27.239Z,6.57
2018-12-06T04:47:00.863Z,6.32
2018-12-06T04:49:34.575Z,7.00
2018-12-06T04:52:08.160Z,6.10
2018-12-06T04:54:41.841Z,6.53
2018-12-06T04:57:15.555Z,7.43
2018-12-06T04:59:49.201Z,6.25
2018-12-06T05:02:22.699Z,6.72
2018-12-06T05:04:57.097Z,6.25
2018-12-06T05:07:31.487Z,6.80
2018-12-06T05:10:05.161Z,5.80
2018-12-06T05:12:39.622Z,6.70
2018-12-06T05:15:13.285Z,6.22
2018-12-06T05:17:47.043Z,7.50
2018-12-06T05:20:20.584Z,5.55
2018-12-06T05:22:54.945Z,5.80
2018-12-06T05:25:28.504Z,6.22
2018-12-06T05:28:02.190Z,6.03
2018-12-06T05:30:35.807Z,6.60
2018-12-06T05:33:09.577Z,5.65
2018-12-06T05:35:43.207Z,7.00
2018-12-06T05:38:16.775Z,7.30
2018-12-06T05:40:50.453Z,6.10
2018-12-06T05:43:23.966Z,5.62
2018-12-06T05:45:57.475Z,6.03
2018-12-06T05:48:31.025Z,6.60
2018-12-06T05:51:04.527Z,5.93
2018-12-06T05:53:38.835Z,6.25
2018-12-06T05:56:12.574Z,5.90
2018-12-06T05:58:46.209Z,6.32
2018-12-06T06:01:19.759Z,6.20
2018-12-06T06:03:53.501Z,6.47
2018-12-06T06:06:27.139Z,6.00
2018-12-06T06:09:00.732Z,6.60
2018-12-06T06:11:34.399Z,6.37
2018-12-06T06:14:08.103Z,5.70
2018-12-06T06:16:41.811Z,6.87
2018-12-06T06:19:15.369Z,7.07
2018-12-06T06:21:49.010Z,6.47
2018-12-06T06:24:23.449Z,6.60
2018-12-06T06:26:57.215Z,7.55
2018-12-06T06:29:30.786Z,8.45
2018-12-06T06:32:04.478Z,7.50
2018-12-06T06:34:38.026Z,7.12
2018-12-06T06:37:11.543Z,6.72
2018-12-06T06:39:45.045Z,6.50
2018-12-06T06:42:18.559Z,6.75
2018-12-06T06:44:52.119Z,7.55
2018-12-06T06:47:25.655Z,6.60
2018-12-06T06:49:59.274Z,7.00
2018-12-06T06:52:33.599Z,6.65
2018-12-06T06:55:07.246Z,7.70
2018-12-06T06:57:40.993Z,7.40
2018-12-06T07:00:15.428Z,7.00
2018-12-06T07:02:49.105Z,7.80
2018-12-06T07:05:22.763Z,6.85
2018-12-06T07:07:56.488Z,7.00
2018-12-06T07:10:30.196Z,7.85
2018-12-06T07:13:03.707Z,7.62
2018-12-06T07:15:37.411Z,6.85
2018-12-06T07:18:11.015Z,8.30
2018-12-06T07:20:44.561Z,8.00
2018-12-06T07:23:19.063Z,10.05
2018-12-06T07:25:52.762Z,9.25
2018-12-06T07:28:27.067Z,8.85
2018-12-06T07:31:00.649Z,10.75
2018-12-06T07:33:34.177Z,10.13
2018-12-06T07:36:07.779Z,9.85
2018-12-06T07:38:41.303Z,8.55
2018-12-06T07:41:15.007Z,8.85
2018-12-06T07:43:48.518Z,8.77
2018-12-06T07:46:22.038Z,9.93
2018-12-06T07:48:55.727Z,10.10
2018-12-06T07:51:29.448Z,8.63
2018-12-06T07:54:03.015Z,9.13
2018-12-06T07:56:36.577Z,8.15
2018-12-06T07:59:11.009Z,9.05
2018-12-06T08:01:45.402Z,8.48
2018-12-06T08:04:19.882Z,9.50
2018-12-06T08:06:53.492Z,8.13
2018-12-06T08:09:27.024Z,6.60
2018-12-06T08:12:00.740Z,7.30
2018-12-06T08:14:34.276Z,8.70
2018-12-06T08:17:08.753Z,6.30
2018-12-06T08:19:42.376Z,6.10
2018-12-06T08:22:16.901Z,8.25
2018-12-06T08:24:50.622Z,7.82
2018-12-06T08:27:25.163Z,7.72
2018-12-06T08:29:59.618Z,7.12
2018-12-06T08:32:33.178Z,7.57
2018-12-06T08:35:06.690Z,8.18
2018-12-06T08:37:40.345Z,8.35
2018-12-06T08:40:14.077Z,7.05
2018-12-06T08:42:48.379Z,7.85
2018-12-06T08:45:22.776Z,8.13
2018-12-06T08:47:56.395Z,7.43
2018-12-06T08:50:30.108Z,7.32
2018-12-06T08:53:04.417Z,7.85
2018-12-06T08:55:37.967Z,7.68
2018-12-06T08:58:11.675Z,7.18
2018-12-06T09:00:45.298Z,7.30
2018-12-06T09:03:18.823Z,7.72
2018-12-06T09:05:52.553Z,7.80
2018-12-06T09:08:26.963Z,6.60
2018-12-06T09:11:01.244Z,8.35
2018-12-06T09:13:34.929Z,7.78
2018-12-06T09:16:08.566Z,7.10
2018-12-06T09:18:42.092Z,7.95
2018-12-06T09:21:15.829Z,8.23
2018-12-06T09:23:49.602Z,8.02
2018-12-06T09:26:23.170Z,8.48
2018-12-06T09:28:57.500Z,9.32
2018-12-06T09:31:31.974Z,8.02
2018-12-06T09:34:05.521Z,7.65
2018-12-06T09:36:39.340Z,8.32
2018-12-06T09:39:12.884Z,8.13
2018-12-06T09:41:46.478Z,7.85
2018-12-06T09:44:20.210Z,8.65
2018-12-06T09:46:54.092Z,7.72
2018-12-06T09:49:27.724Z,8.50
2018-12-06T09:52:01.434Z,7.32
2018-12-06T09:54:34.975Z,7.40
2018-12-06T09:57:08.539Z,7.15
2018-12-06T09:59:42.246Z,7.07
2018-12-06T10:02:15.823Z,6.05
2018-12-06T10:04:49.412Z,4.90
2018-12-06T10:07:22.989Z,4.82
2018-12-06T10:09:56.539Z,4.90
2018-12-06T10:12:30.056Z,5.75
2018-12-06T10:15:04.375Z,4.60
2018-12-06T10:17:38.909Z,5.78
2018-12-06T10:20:13.205Z,3.60
2018-12-06T10:22:46.985Z,2.55
2018-12-06T10:25:20.739Z,2.42
2018-12-06T10:27:54.524Z,2.10
2018-12-06T10:30:28.808Z,2.17
2018-12-06T10:33:02.476Z,2.35
2018-12-06T10:35:37.075Z,1.98
2018-12-06T10:38:11.373Z,2.20
2018-12-06T10:40:44.978Z,2.05
2018-12-06T10:43:18.525Z,2.95
2018-12-06T10:45:52.299Z,1.90
2018-12-06T10:48:26.615Z,2.37
2018-12-06T10:51:12.686Z,2.00
2018-12-06T10:53:46.377Z,2.15
2018-12-06T10:56:20.208Z,1.42
2018-12-06T10:58:53.875Z,2.55
2018-12-06T11:14:50.707Z,2.70
2018-12-06T11:17:24.475Z,2.37
2018-12-06T11:19:58.241Z,2.95
2018-12-06T11:22:31.875Z,2.28
2018-12-06T11:25:05.726Z,2.65
2018-12-06T11:27:40.276Z,3.97
2018-12-06T11:30:14.026Z,2.62
2018-12-06T11:32:48.616Z,2.75
2018-12-06T11:35:22.406Z,2.35
2018-12-06T11:37:56.142Z,2.80
2018-12-06T11:40:29.947Z,2.50
2018-12-06T11:43:03.730Z,2.58
2018-12-06T11:45:37.345Z,2.65
2018-12-06T11:48:11.037Z,2.92
2018-12-06T11:50:44.627Z,4.62
2018-12-06T11:53:19.329Z,2.80
2018-12-06T11:55:52.155Z,2.00
2018-12-06T11:58:25.963Z,3.55
2018-12-06T12:01:00.355Z,3.22
2018-12-06T12:03:34.007Z,2.55
2018-12-06T12:06:07.753Z,2.12
2018-12-06T12:08:41.499Z,2.60
2018-12-06T12:11:15.149Z,1.80
2018-12-06T12:13:49.427Z,2.90
2018-12-06T12:16:23.235Z,1.70
2018-12-06T12:18:57.029Z,1.80
2018-12-06T12:21:30.629Z,2.35
2018-12-06T12:24:04.235Z,2.95
2018-12-06T12:26:37.811Z,2.47
2018-12-06T12:29:11.699Z,2.28
2018-12-06T12:31:45.306Z,2.35
2018-12-06T12:34:18.933Z,2.00
2018-12-06T12:36:53.292Z,1.48
2018-12-06T12:39:27.100Z,2.20
2018-12-06T12:42:00.869Z,2.50
2018-12-06T12:44:34.481Z,2.08
2018-12-06T12:47:08.405Z,1.58
2018-12-06T12:49:42.157Z,1.52
2018-12-06T12:52:15.872Z,1.62
2018-12-06T12:54:49.644Z,2.00
2018-12-06T12:57:23.353Z,2.15
2018-12-06T12:59:56.907Z,1.90
2018-12-06T13:02:30.783Z,1.73
2018-12-06T13:05:04.672Z,2.30
2018-12-06T13:07:38.335Z,1.50
2018-12-06T13:10:12.751Z,1.48
2018-12-06T13:12:46.544Z,2.20
2018-12-06T13:15:20.142Z,1.90
2018-12-06T13:17:53.745Z,1.85
2018-12-06T13:20:27.428Z,1.80
2018-12-06T13:23:01.257Z,1.27
2018-12-06T13:25:35.103Z,2.00
2018-12-06T13:28:09.654Z,1.40
2018-12-06T13:30:44.415Z,1.60
2018-12-06T13:33:18.102Z,1.50
2018-12-06T13:35:51.840Z,1.50
2018-12-06T13:38:25.695Z,1.90
2018-12-06T13:40:59.348Z,1.85
2018-12-06T13:43:33.137Z,1.62
2018-12-06T13:46:07.786Z,10.20
2018-12-06T13:48:41.396Z,1.83
2018-12-06T13:51:15.207Z,1.77
2018-12-06T13:53:48.808Z,1.62
2018-12-06T13:56:22.528Z,2.12
2018-12-06T13:58:56.284Z,3.00
2018-12-06T14:01:29.970Z,2.00
2018-12-06T14:04:03.801Z,2.05
2018-12-06T14:06:38.215Z,2.40
2018-12-06T14:09:11.959Z,1.83
2018-12-06T14:11:45.731Z,1.98
2018-12-06T14:14:19.614Z,1.87
2018-12-06T14:16:54.091Z,1.60
2018-12-06T14:19:27.820Z,1.48
2018-12-06T14:22:01.479Z,1.73
2018-12-06T14:24:36.045Z,1.80
2018-12-06T14:27:10.398Z,1.17
2018-12-06T14:29:44.095Z,2.03
2018-12-06T14:32:17.835Z,1.00
2018-12-06T14:34:52.487Z,0.90
2018-12-06T14:37:26.464Z,1.37
2018-12-06T14:40:00.860Z,1.00
2018-12-06T14:42:35.416Z,1.30
2018-12-06T14:45:09.103Z,1.60
2018-12-06T14:47:42.740Z,1.73
2018-12-06T14:50:17.323Z,1.45
2018-12-06T14:52:51.051Z,1.27
2018-12-06T14:55:24.840Z,1.33
2018-12-06T14:57:58.467Z,1.73
2018-12-06T15:00:32.266Z,1.37
2018-12-06T15:03:06.136Z,4.35
2018-12-06T15:05:40.691Z,1.40
2018-12-06T15:08:15.355Z,2.10
2018-12-06T15:10:49.157Z,1.80
2018-12-06T15:13:22.890Z,2.03
2018-12-06T15:15:57.499Z,2.47
2018-12-06T15:18:31.087Z,1.27
2018-12-06T15:21:04.661Z,2.05
2018-12-06T15:23:38.258Z,2.40
2018-12-06T15:26:11.961Z,1.45
2018-12-06T15:28:46.560Z,1.75
2018-12-06T15:31:20.184Z,1.77
2018-12-06T15:33:53.791Z,2.00
2018-12-06T15:36:28.161Z,1.75
2018-12-06T15:39:01.899Z,2.25
2018-12-06T15:41:35.721Z,1.70
2018-12-06T15:44:09.354Z,1.75
2018-12-06T15:46:43.195Z,2.67
2018-12-06T15:49:16.987Z,1.75
2018-12-06T15:51:50.757Z,2.55
2018-12-06T15:54:25.333Z,3.35
2018-12-06T15:56:59.863Z,2.55
2018-12-06T15:59:33.618Z,2.72
2018-12-06T16:02:08.098Z,2.50
2018-12-06T16:04:41.844Z,1.50
2018-12-06T16:07:16.334Z,1.95
2018-12-06T16:09:50.227Z,1.27
2018-12-06T16:12:24.055Z,2.30
2018-12-06T16:14:57.820Z,2.05
2018-12-06T16:17:32.216Z,1.90
2018-12-06T16:20:05.846Z,1.58
2018-12-06T16:22:39.619Z,2.12
2018-12-06T16:25:13.213Z,2.03
2018-12-06T16:27:46.842Z,1.83
2018-12-06T16:30:20.516Z,1.55
2018-12-06T16:32:54.285Z,1.45
2018-12-06T16:35:28.078Z,1.67
2018-12-06T16:38:02.565Z,1.10
2018-12-06T16:40:36.209Z,1.85
2018-12-06T16:43:09.977Z,1.37
2018-12-06T16:45:43.753Z,1.23
2018-12-06T16:48:17.442Z,1.40
2018-12-06T16:50:51.932Z,2.78
2018-12-06T16:53:25.657Z,1.58
2018-12-06T16:55:59.464Z,1.75
2018-12-06T16:58:33.329Z,1.50
2018-12-06T17:01:07.207Z,1.90
2018-12-06T17:03:42.118Z,1.23
2018-12-06T17:06:15.798Z,1.52
2018-12-06T17:08:50.462Z,2.30
2018-12-06T17:11:24.122Z,1.77
2018-12-06T17:13:57.841Z,1.65
2018-12-06T17:16:31.472Z,1.92
2018-12-06T17:19:05.245Z,2.30
2018-12-06T17:21:38.934Z,1.77
2018-12-06T17:24:12.740Z,1.60
2018-12-06T17:26:46.600Z,3.17
2018-12-06T17:29:20.320Z,2.95
2018-12-06T17:31:54.850Z,1.90
2018-12-06T17:34:28.678Z,1.85
2018-12-06T17:37:02.376Z,2.35
2018-12-06T17:39:36.130Z,1.30
2018-12-06T17:42:09.705Z,1.58
2018-12-06T17:44:43.459Z,1.60
2018-12-06T17:47:17.316Z,1.80
2018-12-06T17:49:51.788Z,1.75
2018-12-06T17:52:25.589Z,1.42
2018-12-06T17:54:59.427Z,1.62
2018-12-06T17:57:33.160Z,3.58
2018-12-06T18:00:07.158Z,1.65
2018-12-06T18:02:41.158Z,3.10
2018-12-06T18:05:14.975Z,2.15
2018-12-06T18:07:48.664Z,1.90
2018-12-06T18:10:22.425Z,2.42
2018-12-06T18:12:56.914Z,2.20
2018-12-06T18:15:30.774Z,1.80
2018-12-06T18:18:04.594Z,1.73
2018-12-06T18:20:38.434Z,1.50
2018-12-06T18:23:12.185Z,1.65
2018-12-06T18:25:46.014Z,1.40
2018-12-06T18:28:19.666Z,1.90
2018-12-06T18:30:53.452Z,1.90
2018-12-06T18:33:27.326Z,1.52
2018-12-06T18:36:01.135Z,2.75
2018-12-06T18:38:34.847Z,1.70
2018-12-06T18:41:08.625Z,3.42
2018-12-06T18:43:43.134Z,1.90
2018-12-06T18:46:16.709Z,2.95
2018-12-06T18:48:50.726Z,10.10
2018-12-06T18:51:24.837Z,1.92
2018-12-06T18:53:59.242Z,2.70
2018-12-06T18:56:33.105Z,1.70
2018-12-06T18:59:06.898Z,1.75
2018-12-06T19:01:40.755Z,4.87
2018-12-06T19:04:14.545Z,2.25
2018-12-06T19:06:48.328Z,2.70
2018-12-06T19:09:22.204Z,2.70
2018-12-06T19:11:55.971Z,2.60
2018-12-06T19:14:29.688Z,2.12
2018-12-06T19:17:03.831Z,1.67
2018-12-06T19:19:38.687Z,2.00
2018-12-06T19:22:12.929Z,2.67
2018-12-06T19:24:46.630Z,1.87
2018-12-06T19:27:20.336Z,2.10
2018-12-06T19:29:54.105Z,2.30
2018-12-06T19:32:28.938Z,1.50
2018-12-06T19:35:02.925Z,1.80
2018-12-06T19:37:37.489Z,1.90
2018-12-06T19:40:11.553Z,3.62
2018-12-06T19:42:45.653Z,2.50
2018-12-06T19:45:19.318Z,2.53
2018-12-06T19:47:52.988Z,2.30
2018-12-06T19:50:27.592Z,1.90
2018-12-06T19:53:01.539Z,1.55
2018-12-06T19:55:36.322Z,1.50
2018-12-06T19:58:10.275Z,2.62
2018-12-06T20:00:44.643Z,1.50
2018-12-06T20:03:18.542Z,1.60
2018-12-06T20:05:52.265Z,2.78
2018-12-06T20:08:26.294Z,3.62
2018-12-06T20:11:00.030Z,1.55
2018-12-06T20:13:33.791Z,1.42
2018-12-06T20:16:08.257Z,1.77
2018-12-06T20:18:42.030Z,1.90
2018-12-06T20:21:15.980Z,2.33
2018-12-06T20:23:50.107Z,1.90
2018-12-06T20:26:25.061Z,2.05
2018-12-06T20:28:59.105Z,1.77
2018-12-06T20:31:33.702Z,1.70
2018-12-06T20:34:07.466Z,2.42
2018-12-06T20:36:41.226Z,2.67
2018-12-06T20:39:14.861Z,2.40
2018-12-06T20:41:48.621Z,2.47
2018-12-06T20:44:22.445Z,1.45
2018-12-06T20:46:56.246Z,1.60
2018-12-06T20:49:30.038Z,1.85
2018-12-06T20:52:03.887Z,2.92
2018-12-06T20:54:37.624Z,2.15
2018-12-06T20:57:11.362Z,2.58
2018-12-06T20:59:45.204Z,1.67
2018-12-06T21:02:19.638Z,1.95
2018-12-06T21:04:53.286Z,2.25
2018-12-06T21:07:27.062Z,2.00
2018-12-06T21:10:00.958Z,2.12
2018-12-06T21:12:34.715Z,2.00
2018-12-06T21:15:08.390Z,1.73
2018-12-06T21:17:42.229Z,1.70
2018-12-06T21:20:15.985Z,2.08
2018-12-06T21:22:50.526Z,1.90
2018-12-06T21:25:24.164Z,1.20
2018-12-06T21:27:57.951Z,1.70
2018-12-06T21:30:31.607Z,1.60
2018-12-06T21:33:05.429Z,1.95
2018-12-06T21:35:39.253Z,1.42
2018-12-06T21:38:12.973Z,2.00
2018-12-06T21:40:47.584Z,1.95
2018-12-06T21:43:21.241Z,1.55
2018-12-06T21:45:55.147Z,2.67
2018-12-06T21:48:28.723Z,1.98
2018-12-06T21:51:02.683Z,2.10
2018-12-06T21:53:36.435Z,1.12
2018-12-06T21:56:10.111Z,1.15
2018-12-06T21:58:43.758Z,2.50
2018-12-06T22:01:17.582Z,1.25
2018-12-06T22:03:51.212Z,1.60
2018-12-06T22:06:25.810Z,1.08
2018-12-06T22:08:59.612Z,1.27
2018-12-06T22:11:33.289Z,1.35
2018-12-06T22:14:07.144Z,1.67
2018-12-06T22:16:40.965Z,0.95
2018-12-06T22:19:14.671Z,1.48
2018-12-06T22:21:48.388Z,1.30
2018-12-06T22:24:22.928Z,1.35
2018-12-06T22:26:56.718Z,1.08
2018-12-06T22:29:30.508Z,1.20
2018-12-06T22:32:04.462Z,1.05
2018-12-06T22:34:38.919Z,1.27
2018-12-06T22:37:12.584Z,1.42
2018-12-06T22:39:46.956Z,1.15
2018-12-06T22:42:20.607Z,1.00
2018-12-06T22:44:54.455Z,0.80
2018-12-06T22:47:29.042Z,1.20
2018-12-06T22:50:03.625Z,1.12
2018-12-06T22:52:37.232Z,1.37
2018-12-06T22:55:11.096Z,0.80
2018-12-06T22:57:44.856Z,1.35
2018-12-06T23:00:18.458Z,1.30
2018-12-06T23:02:53.920Z,0.75
2018-12-06T23:05:27.580Z,1.20
2018-12-06T23:08:01.633Z,0.60
2018-12-06T23:10:35.999Z,0.70
2018-12-06T23:13:09.716Z,1.10
2018-12-06T23:15:44.268Z,0.65
2018-12-06T23:18:18.054Z,0.88
2018-12-06T23:20:51.832Z,0.93
2018-12-06T23:23:26.630Z,0.95
2018-12-06T23:26:01.013Z,0.62
2018-12-06T23:28:34.845Z,0.80
2018-12-06T23:31:08.685Z,0.70
2018-12-06T23:33:42.563Z,0.60
2018-12-06T23:36:16.345Z,0.95
2018-12-06T23:38:50.882Z,0.57
2018-12-06T23:41:24.607Z,1.20
2018-12-06T23:43:58.321Z,0.60
2018-12-06T23:46:32.223Z,0.90
2018-12-06T23:49:05.844Z,0.70
2018-12-06T23:51:39.425Z,0.60
2018-12-06T23:54:12.981Z,0.80
2018-12-06T23:56:46.693Z,1.05
2018-12-06T23:59:20.440Z,0.82
